Time;durP1;ratioP1;P1;durP2;ratioP2;P2;SDS_P1;SDS_P2;PMS_P1;PMS_P2;Temp;Humidity;BMP_temperature;BMP_pressure;BME280_temperature;BME280_humidity;BME280_pressure;Samples;Min_cycle;Max_cycle;Signal;HPM_P1;HPM_P2
2021/01/06 00:01:01;;;;;;;34.13;15.05;;;1.40;62.90;;;;;;6244761;23;20300;-68
2021/01/06 00:03:30;;;;;;;28.90;15.32;;;1.30;62.60;;;;;;6244472;23;20208;-69
2021/01/06 00:06:08;;;;;;;36.25;15.70;;;1.30;62.90;;;;;;6244296;23;20620;-69
2021/01/06 00:08:35;;;;;;;31.52;13.23;;;1.30;63.50;;;;;;6243881;23;20562;-69
2021/01/06 00:13:52;;;;;;;27.60;14.98;;;1.30;62.40;;;;;;6243490;23;20871;-69
2021/01/06 00:16:20;;;;;;;29.45;13.90;;;1.30;62.80;;;;;;6243537;23;20197;-69
2021/01/06 00:18:58;;;;;;;27.90;12.85;;;1.40;63.00;;;;;;6239677;23;20694;-70
2021/01/06 00:21:25;;;;;;;27.10;13.05;;;1.40;63.20;;;;;;6242409;23;20267;-71
2021/01/06 00:23:53;;;;;;;28.00;14.15;;;1.40;63.30;;;;;;6243317;23;20162;-68
2021/01/06 00:26:21;;;;;;;25.70;13.52;;;1.40;63.20;;;;;;6243833;23;20174;-70
2021/01/06 00:28:54;;;;;;;24.10;13.95;;;1.50;63.30;;;;;;6243892;23;20188;-71
2021/01/06 00:31:20;;;;;;;32.88;15.32;;;1.50;63.10;;;;;;6243499;23;20161;-69
2021/01/06 00:33:47;;;;;;;25.73;12.38;;;1.50;62.90;;;;;;6244086;23;20617;-69
2021/01/06 00:36:19;;;;;;;27.48;12.80;;;1.50;62.80;;;;;;6244126;23;20173;-70
2021/01/06 00:38:50;;;;;;;26.02;13.10;;;1.50;62.90;;;;;;6243012;23;20160;-70
2021/01/06 00:41:32;;;;;;;26.88;14.30;;;1.50;62.90;;;;;;6243949;23;20166;-69
2021/01/06 00:44:01;;;;;;;33.47;14.15;;;1.60;63.00;;;;;;6244061;23;20200;-69
2021/01/06 00:46:37;;;;;;;29.05;14.77;;;1.50;62.80;;;;;;6243706;23;20613;-68
2021/01/06 00:49:05;;;;;;;34.80;16.80;;;1.50;62.90;;;;;;6243850;23;20347;-69
2021/01/06 00:51:33;;;;;;;30.20;15.15;;;1.60;63.20;;;;;;6243715;23;20188;-69
2021/01/06 00:53:59;;;;;;;29.00;13.20;;;1.60;63.00;;;;;;6243435;23;20170;-68
2021/01/06 00:56:28;;;;;;;36.58;16.42;;;1.60;63.20;;;;;;6243007;23;20185;-69
2021/01/06 00:58:55;;;;;;;36.28;16.33;;;1.50;63.30;;;;;;6243906;23;20162;-69
2021/01/06 01:01:22;;;;;;;34.13;15.20;;;1.50;63.30;;;;;;6243507;23;20486;-70
2021/01/06 01:03:51;;;;;;;47.03;19.02;;;1.60;63.40;;;;;;6243821;23;20184;-70
2021/01/06 01:06:31;;;;;;;39.92;15.35;;;1.60;63.40;;;;;;6243385;23;20173;-69
2021/01/06 01:08:58;;;;;;;27.95;14.32;;;1.60;63.40;;;;;;6243688;23;20229;-69
2021/01/06 01:11:25;;;;;;;32.42;17.73;;;1.60;63.40;;;;;;6243106;23;20180;-68
2021/01/06 01:13:55;;;;;;;40.03;18.65;;;1.60;63.50;;;;;;6243443;23;20902;-68
2021/01/06 01:16:22;;;;;;;38.30;15.32;;;1.60;63.70;;;;;;6243214;23;20193;-69
2021/01/06 01:18:49;;;;;;;25.27;13.48;;;1.70;63.50;;;;;;6244858;23;20162;-69
2021/01/06 01:21:31;;;;;;;38.78;15.23;;;1.70;63.70;;;;;;6244377;23;20193;-69
2021/01/06 01:23:57;;;;;;;35.22;17.25;;;1.70;63.80;;;;;;6245315;23;20166;-70
2021/01/06 01:26:27;;;;;;;28.90;15.98;;;1.70;63.80;;;;;;6244339;23;20170;-70
2021/01/06 01:28:54;;;;;;;31.15;14.52;;;1.70;64.00;;;;;;6244643;23;20240;-69
2021/01/06 01:31:32;;;;;;;34.63;14.77;;;1.70;64.10;;;;;;6244458;23;20161;-71
2021/01/06 01:33:59;;;;;;;33.63;12.70;;;1.70;64.30;;;;;;6245859;23;20188;-68
2021/01/06 01:36:26;;;;;;;38.22;16.75;;;1.70;64.50;;;;;;6244893;23;20189;-68
2021/01/06 01:38:55;;;;;;;32.45;16.50;;;1.70;65.00;;;;;;6245251;23;20173;-68
2021/01/06 01:41:24;;;;;;;43.13;17.67;;;1.70;65.10;;;;;;6245460;23;20463;-69
2021/01/06 01:43:53;;;;;;;39.50;16.70;;;1.70;65.40;;;;;;6245517;23;20195;-68
2021/01/06 01:46:52;;;;;;;35.17;17.45;;;1.70;66.10;;;;;;6245180;23;20236;-69
2021/01/06 01:49:25;;;;;;;31.83;15.93;;;1.70;66.40;;;;;;6245611;23;20150;-68
2021/01/06 01:52:01;;;;;;;40.30;18.38;;;1.60;66.60;;;;;;6244953;23;20607;-68
2021/01/06 01:54:30;;;;;;;36.25;18.05;;;1.60;67.60;;;;;;6244919;23;20157;-68
2021/01/06 01:57:02;;;;;;;34.35;17.17;;;1.60;67.90;;;;;;6245433;23;20197;-68
2021/01/06 01:59:34;;;;;;;46.90;17.88;;;1.50;68.40;;;;;;6245218;23;20154;-68
2021/01/06 02:02:06;;;;;;;45.20;17.25;;;1.50;68.80;;;;;;6244339;23;20536;-68
2021/01/06 02:04:38;;;;;;;48.10;16.95;;;1.50;69.10;;;;;;6244963;23;20519;-68
2021/01/06 02:07:09;;;;;;;43.97;16.70;;;1.50;69.20;;;;;;6243227;23;20162;-71
2021/01/06 02:09:47;;;;;;;36.83;15.95;;;1.50;69.20;;;;;;6245371;23;20627;-68
2021/01/06 02:12:24;;;;;;;39.33;18.25;;;1.50;69.40;;;;;;6245600;23;20208;-68
2021/01/06 02:15:00;;;;;;;49.03;18.88;;;1.50;69.60;;;;;;6244827;23;20154;-68
2021/01/06 02:17:27;;;;;;;42.85;18.23;;;1.50;69.50;;;;;;6245421;23;20544;-68
2021/01/06 02:19:54;;;;;;;44.95;16.63;;;1.40;69.80;;;;;;6245130;23;20161;-68
2021/01/06 02:22:22;;;;;;;49.83;17.67;;;1.40;70.00;;;;;;6245444;23;20166;-69
2021/01/06 02:24:50;;;;;;;48.40;18.45;;;1.40;69.70;;;;;;6245078;23;20224;-68
2021/01/06 02:27:18;;;;;;;41.38;16.88;;;1.40;70.30;;;;;;6244850;23;20651;-69
2021/01/06 02:29:45;;;;;;;44.20;18.98;;;1.40;70.30;;;;;;6245423;23;20170;-68
2021/01/06 02:32:12;;;;;;;44.00;16.55;;;1.40;70.20;;;;;;6244017;23;20170;-68
2021/01/06 02:34:41;;;;;;;38.95;17.80;;;1.20;70.50;;;;;;6244768;23;20174;-68
2021/01/06 02:37:09;;;;;;;43.17;17.10;;;1.20;71.10;;;;;;6245169;23;20185;-69
2021/01/06 02:39:40;;;;;;;37.35;17.67;;;1.20;71.20;;;;;;6245274;23;20448;-68
2021/01/06 02:42:07;;;;;;;32.95;14.07;;;1.20;70.90;;;;;;6244837;23;20158;-69
2021/01/06 02:44:34;;;;;;;41.40;18.05;;;1.10;71.40;;;;;;6245322;23;20178;-68
2021/01/06 02:47:01;;;;;;;35.55;16.15;;;1.10;71.20;;;;;;6245140;23;20171;-69
2021/01/06 02:49:27;;;;;;;34.53;16.00;;;1.00;71.80;;;;;;6245259;23;20166;-68
2021/01/06 02:51:59;;;;;;;34.80;16.08;;;1.00;72.10;;;;;;6244927;23;20157;-69
2021/01/06 02:54:33;;;;;;;33.30;17.08;;;1.00;72.30;;;;;;6245253;23;20611;-68
2021/01/06 02:57:03;;;;;;;36.75;15.88;;;0.90;72.40;;;;;;6244488;23;20182;-68
2021/01/06 02:59:35;;;;;;;39.28;16.70;;;0.90;72.60;;;;;;6244775;23;20150;-70
2021/01/06 03:02:02;;;;;;;32.22;17.95;;;0.90;72.20;;;;;;6244765;23;20150;-69
2021/01/06 03:04:34;;;;;;;38.70;16.75;;;0.80;72.40;;;;;;6245155;23;20466;-69
2021/01/06 03:07:04;;;;;;;37.85;15.68;;;0.70;73.20;;;;;;6245016;23;20150;-68
2021/01/06 03:09:33;;;;;;;40.17;16.17;;;0.70;73.10;;;;;;6246322;23;20169;-69
2021/01/06 03:12:03;;;;;;;34.92;16.40;;;0.70;73.10;;;;;;6247223;23;20248;-68
2021/01/06 03:14:32;;;;;;;40.08;16.45;;;0.80;73.50;;;;;;6246669;23;20616;-68
2021/01/06 03:17:01;;;;;;;43.60;17.15;;;0.80;73.20;;;;;;6247069;23;20224;-69
2021/01/06 03:19:31;;;;;;;49.50;19.17;;;0.70;73.40;;;;;;6247038;23;20462;-68
2021/01/06 03:22:00;;;;;;;41.67;17.33;;;0.70;73.30;;;;;;6246722;23;20165;-68
2021/01/06 03:24:32;;;;;;;36.45;17.92;;;0.70;72.90;;;;;;6245924;23;20227;-68
2021/01/06 03:27:02;;;;;;;41.33;17.98;;;0.70;73.10;;;;;;6247072;23;20155;-68
2021/01/06 03:29:32;;;;;;;39.90;16.48;;;0.60;73.90;;;;;;6246063;23;20173;-68
2021/01/06 03:32:02;;;;;;;33.22;15.27;;;0.60;74.00;;;;;;6246457;23;20172;-69
2021/01/06 03:34:34;;;;;;;47.45;18.30;;;0.50;74.20;;;;;;6246937;23;20153;-68
2021/01/06 03:37:11;;;;;;;39.47;20.25;;;0.50;74.40;;;;;;6246960;23;20193;-68
2021/01/06 03:39:44;;;;;;;40.35;16.92;;;0.40;74.60;;;;;;6246857;23;20164;-69
2021/01/06 03:42:12;;;;;;;44.42;17.88;;;0.40;75.40;;;;;;6246909;23;20474;-68
2021/01/06 03:44:38;;;;;;;33.50;16.35;;;0.40;75.00;;;;;;6246122;23;20184;-68
2021/01/06 03:47:08;;;;;;;39.35;16.63;;;0.30;75.40;;;;;;6246439;23;20177;-68
2021/01/06 03:49:54;;;;;;;34.88;16.48;;;0.30;76.00;;;;;;6246510;23;20178;-68
2021/01/06 03:52:33;;;;;;;42.05;17.30;;;0.30;75.90;;;;;;6246492;23;20157;-68
2021/01/06 03:55:06;;;;;;;33.92;16.65;;;0.30;75.60;;;;;;6247200;23;20150;-68
2021/01/06 03:57:34;;;;;;;34.28;16.35;;;0.30;75.60;;;;;;6246058;23;20174;-68
2021/01/06 04:00:02;;;;;;;35.30;16.30;;;0.30;76.10;;;;;;6246868;23;20162;-68
2021/01/06 04:02:35;;;;;;;38.08;14.00;;;0.30;76.40;;;;;;6246893;23;20169;-68
2021/01/06 04:05:07;;;;;;;40.85;19.55;;;0.30;76.20;;;;;;6247209;23;20276;-68
2021/01/06 04:07:36;;;;;;;36.63;18.13;;;0.30;76.60;;;;;;6247227;23;20504;-68
2021/01/06 04:10:08;;;;;;;36.53;16.45;;;0.30;76.30;;;;;;6247105;23;20161;-68
2021/01/06 04:12:36;;;;;;;35.30;16.75;;;0.40;76.30;;;;;;6247142;23;20150;-68
2021/01/06 04:15:04;;;;;;;43.75;18.00;;;0.40;75.80;;;;;;6245387;23;20166;-68
2021/01/06 04:17:33;;;;;;;37.95;17.67;;;0.30;76.50;;;;;;6246821;23;20185;-68
2021/01/06 04:20:03;;;;;;;38.10;15.32;;;0.30;76.20;;;;;;6246019;23;20625;-68
2021/01/06 04:22:43;;;;;;;37.63;17.52;;;0.30;76.40;;;;;;6247190;23;20150;-68
2021/01/06 04:25:20;;;;;;;35.10;16.23;;;0.30;76.50;;;;;;6246720;23;20158;-68
2021/01/06 04:27:49;;;;;;;39.15;16.65;;;0.30;76.60;;;;;;6246558;23;20533;-69
2021/01/06 04:30:24;;;;;;;29.67;15.73;;;0.30;76.90;;;;;;6246730;23;20212;-68
2021/01/06 04:32:51;;;;;;;36.03;16.17;;;0.40;76.60;;;;;;6246952;23;20150;-68
2021/01/06 04:35:18;;;;;;;34.90;16.08;;;0.50;76.30;;;;;;6246258;23;20223;-69
2021/01/06 04:37:45;;;;;;;39.72;15.43;;;0.50;75.80;;;;;;6246884;23;20190;-69
2021/01/06 04:40:14;;;;;;;39.25;16.13;;;0.60;75.30;;;;;;6246912;23;20184;-68
2021/01/06 04:42:43;;;;;;;32.10;15.07;;;0.60;75.30;;;;;;6246800;23;20170;-70
2021/01/06 04:45:14;;;;;;;34.92;16.63;;;0.50;75.30;;;;;;6246761;23;20173;-68
2021/01/06 04:48:08;;;;;;;37.95;16.02;;;0.50;74.90;;;;;;6246507;23;20589;-68
2021/01/06 04:51:03;;;;;;;37.08;18.10;;;0.50;75.20;;;;;;6246745;23;20169;-68
2021/01/06 04:53:41;;;;;;;34.65;16.48;;;0.40;75.50;;;;;;6243655;23;20154;-69
2021/01/06 04:56:35;;;;;;;34.97;15.85;;;0.40;76.20;;;;;;6246645;23;20236;-68
2021/01/06 04:59:09;;;;;;;42.65;17.30;;;0.30;75.60;;;;;;6245695;23;20663;-68
2021/01/06 05:02:00;;;;;;;34.80;15.07;;;0.30;76.40;;;;;;6246983;23;20154;-68
2021/01/06 05:05:01;;;;;;;32.47;15.73;;;0.20;76.50;;;;;;6246163;23;20154;-68
2021/01/06 05:07:41;;;;;;;36.15;16.35;;;0.30;76.30;;;;;;6246500;23;20189;-68
2021/01/06 05:10:22;;;;;;;36.13;15.82;;;0.30;75.90;;;;;;6244781;23;20154;-68
2021/01/06 05:12:51;;;;;;;31.88;15.32;;;0.40;75.90;;;;;;6246071;23;20154;-69
2021/01/06 05:15:31;;;;;;;36.38;16.20;;;0.30;75.80;;;;;;6245393;23;20179;-69
2021/01/06 05:17:59;;;;;;;32.10;15.43;;;0.30;76.80;;;;;;6246393;23;20181;-68
2021/01/06 05:20:26;;;;;;;36.33;15.98;;;0.20;77.00;;;;;;6245955;23;20166;-68
2021/01/06 05:22:52;;;;;;;33.08;14.80;;;0.30;76.70;;;;;;6245992;23;20252;-69
2021/01/06 05:25:19;;;;;;;32.00;14.32;;;0.20;76.60;;;;;;6244623;23;20219;-68
2021/01/06 05:27:47;;;;;;;36.55;16.10;;;0.20;77.00;;;;;;6246402;23;20172;-69
2021/01/06 05:30:22;;;;;;;35.40;15.93;;;0.10;76.90;;;;;;6246071;23;20168;-68
2021/01/06 05:32:49;;;;;;;34.28;15.98;;;0.10;77.30;;;;;;6245586;23;20204;-68
2021/01/06 05:35:21;;;;;;;37.65;14.55;;;0.10;77.20;;;;;;6246127;23;20168;-68
2021/01/06 05:37:52;;;;;;;35.25;16.08;;;0.20;77.10;;;;;;6245063;23;20182;-68
2021/01/06 05:40:19;;;;;;;30.98;15.35;;;0.20;76.80;;;;;;6245598;23;20245;-68
2021/01/06 05:42:51;;;;;;;31.75;15.50;;;0.20;77.10;;;;;;6245744;23;20166;-70
2021/01/06 05:45:21;;;;;;;34.33;17.05;;;0.10;77.20;;;;;;6245640;23;20155;-68
2021/01/06 05:47:52;;;;;;;34.00;15.38;;;0.20;77.60;;;;;;6246586;23;20150;-69
2021/01/06 05:50:23;;;;;;;31.63;17.05;;;0.10;77.30;;;;;;6245925;23;20154;-69
2021/01/06 05:52:59;;;;;;;35.50;16.58;;;0.20;77.90;;;;;;6246106;23;20157;-68
2021/01/06 05:55:29;;;;;;;29.38;15.15;;;0.10;77.40;;;;;;6246111;23;20565;-68
2021/01/06 05:58:03;;;;;;;29.77;15.63;;;0.10;77.50;;;;;;6245813;23;20182;-69
2021/01/06 06:00:45;;;;;;;38.30;16.95;;;0.10;77.70;;;;;;6246143;23;20153;-69
2021/01/06 06:03:39;;;;;;;41.58;17.75;;;0.10;77.40;;;;;;6246097;23;20524;-68
2021/01/06 06:06:35;;;;;;;29.13;14.13;;;0.20;77.70;;;;;;6233985;23;20536;-68
2021/01/06 06:09:05;;;;;;;34.45;16.02;;;0.20;77.50;;;;;;6241801;23;20185;-68
2021/01/06 06:11:56;;;;;;;29.27;15.48;;;0.20;76.90;;;;;;6245896;23;20158;-68
2021/01/06 06:15:13;;;;;;;32.83;16.98;;;0.20;76.60;;;;;;6245351;23;20216;-68
2021/01/06 06:18:07;;;;;;;26.73;15.70;;;0.10;77.20;;;;;;6245875;23;20188;-68
2021/01/06 06:20:44;;;;;;;31.48;15.30;;;0.10;78.10;;;;;;6241635;23;20169;-68
2021/01/06 06:23:29;;;;;;;31.88;14.65;;;0.00;77.50;;;;;;6245495;23;20639;-68
2021/01/06 06:26:05;;;;;;;34.13;16.35;;;0.00;78.10;;;;;;6245563;23;20185;-68
2021/01/06 06:28:36;;;;;;;34.20;15.27;;;-0.10;78.10;;;;;;6245376;23;20169;-68
2021/01/06 06:31:29;;;;;;;33.67;16.95;;;-0.10;78.40;;;;;;6243828;23;20580;-68
2021/01/06 06:33:59;;;;;;;30.75;15.05;;;-0.20;78.90;;;;;;6245822;23;20167;-69
2021/01/06 06:36:29;;;;;;;30.05;14.07;;;-0.10;79.00;;;;;;6244751;23;20188;-68
2021/01/06 06:38:58;;;;;;;30.25;14.20;;;-0.10;78.60;;;;;;6245700;23;20154;-68
2021/01/06 06:41:32;;;;;;;34.40;14.15;;;0.00;78.90;;;;;;6244871;23;20216;-68
2021/01/06 06:44:22;;;;;;;32.65;16.00;;;-0.10;78.70;;;;;;6245202;23;20470;-68
2021/01/06 06:47:01;;;;;;;34.92;16.63;;;0.00;78.30;;;;;;6245268;23;20166;-68
2021/01/06 06:49:39;;;;;;;26.60;13.75;;;0.00;78.60;;;;;;6245871;23;20150;-68
2021/01/06 06:52:14;;;;;;;27.83;14.10;;;0.00;78.20;;;;;;6245760;23;20169;-68
2021/01/06 06:54:49;;;;;;;32.70;14.38;;;0.10;78.20;;;;;;6245486;23;20192;-70
2021/01/06 06:57:28;;;;;;;32.40;16.08;;;0.00;77.90;;;;;;6245661;23;20208;-68
2021/01/06 07:00:03;;;;;;;27.35;13.10;;;0.10;78.10;;;;;;6244668;23;20193;-68
2021/01/06 07:02:30;;;;;;;32.83;16.67;;;0.00;78.10;;;;;;6245300;23;20622;-68
2021/01/06 07:05:00;;;;;;;27.65;14.52;;;0.00;78.70;;;;;;6245519;23;20173;-68
2021/01/06 07:07:37;;;;;;;29.25;14.90;;;-0.10;78.60;;;;;;6245094;23;20154;-70
2021/01/06 07:10:07;;;;;;;28.45;13.73;;;0.00;78.80;;;;;;6244842;23;20150;-68
2021/01/06 07:12:39;;;;;;;29.70;15.32;;;0.00;79.10;;;;;;6245137;23;20161;-68
2021/01/06 07:15:07;;;;;;;29.65;13.95;;;0.00;79.40;;;;;;6244156;23;20262;-69
2021/01/06 07:17:37;;;;;;;29.15;13.15;;;0.10;78.70;;;;;;6245558;23;20586;-68
2021/01/06 07:20:07;;;;;;;26.38;13.77;;;0.00;78.70;;;;;;6242871;23;20481;-68
2021/01/06 07:22:37;;;;;;;29.92;13.07;;;0.00;79.10;;;;;;6244170;23;20687;-68
2021/01/06 07:25:20;;;;;;;33.53;13.13;;;0.00;79.20;;;;;;6245540;23;20213;-69
2021/01/06 07:27:51;;;;;;;30.70;14.70;;;0.00;79.40;;;;;;6245454;23;20189;-68
2021/01/06 07:30:28;;;;;;;25.00;13.52;;;0.00;79.00;;;;;;6245869;23;20150;-69
2021/01/06 07:32:55;;;;;;;24.27;14.45;;;0.00;79.40;;;;;;6245067;23;20184;-68
2021/01/06 07:35:24;;;;;;;29.85;15.02;;;0.00;79.70;;;;;;6245497;23;20169;-70
2021/01/06 07:37:57;;;;;;;33.45;15.73;;;0.10;79.20;;;;;;6245262;23;20243;-68
2021/01/06 07:40:27;;;;;;;37.13;17.77;;;0.20;79.20;;;;;;6242885;23;20177;-68
2021/01/06 07:42:55;;;;;;;26.90;14.20;;;0.20;79.40;;;;;;6244658;23;20170;-68
2021/01/06 07:45:32;;;;;;;26.95;13.70;;;0.20;79.40;;;;;;6242750;23;20647;-69
2021/01/06 07:48:24;;;;;;;30.65;16.50;;;0.30;79.00;;;;;;6244834;23;20210;-69
2021/01/06 07:50:59;;;;;;;42.17;21.27;;;0.30;79.10;;;;;;6244664;23;20162;-69
2021/01/06 07:53:34;;;;;;;28.92;16.00;;;0.30;79.30;;;;;;6244938;23;20156;-69
2021/01/06 07:56:12;;;;;;;28.80;14.57;;;0.40;79.20;;;;;;6246792;23;20211;-68
2021/01/06 07:58:43;;;;;;;33.20;17.52;;;0.40;77.70;;;;;;6247040;23;20227;-68
2021/01/06 08:01:18;;;;;;;31.13;16.92;;;0.40;78.00;;;;;;6246593;23;20154;-68
2021/01/06 08:03:50;;;;;;;34.40;17.83;;;0.50;78.40;;;;;;6247344;23;20157;-69
2021/01/06 08:06:20;;;;;;;31.02;14.80;;;0.40;78.00;;;;;;6246419;23;20208;-68
2021/01/06 08:08:48;;;;;;;27.67;16.88;;;0.30;78.50;;;;;;6247101;23;20472;-69
2021/01/06 08:11:18;;;;;;;28.30;17.63;;;0.40;78.10;;;;;;6246599;23;20166;-69
2021/01/06 08:14:03;;;;;;;27.50;15.20;;;0.40;78.10;;;;;;6247003;23;20173;-71
2021/01/06 08:16:37;;;;;;;22.98;11.52;;;0.50;78.90;;;;;;6246201;23;20236;-68
2021/01/06 08:19:15;;;;;;;25.83;13.90;;;0.50;77.70;;;;;;6246210;23;20189;-68
2021/01/06 08:21:52;;;;;;;29.27;14.27;;;0.50;78.10;;;;;;6247151;23;20158;-68
2021/01/06 08:24:28;;;;;;;28.88;12.52;;;0.50;78.50;;;;;;6246341;23;20150;-69
2021/01/06 08:26:58;;;;;;;23.40;11.18;;;0.50;77.20;;;;;;6246612;23;20149;-68
2021/01/06 08:29:26;;;;;;;25.33;13.38;;;0.60;78.30;;;;;;6246959;23;20501;-69
2021/01/06 08:31:55;;;;;;;22.80;12.45;;;0.60;78.30;;;;;;6246886;23;20264;-68
2021/01/06 08:34:24;;;;;;;24.88;11.45;;;0.60;78.40;;;;;;6246335;23;20256;-70
2021/01/06 08:36:56;;;;;;;24.90;11.65;;;0.70;78.30;;;;;;6246771;23;20161;-73
2021/01/06 08:39:24;;;;;;;26.08;11.40;;;0.70;77.70;;;;;;6246252;23;20680;-69
2021/01/06 08:41:52;;;;;;;29.98;13.00;;;0.80;78.40;;;;;;6246770;23;20173;-68
2021/01/06 08:44:41;;;;;;;20.67;11.75;;;0.80;77.30;;;;;;6246688;23;20173;-70
2021/01/06 08:47:11;;;;;;;21.77;11.20;;;0.90;77.10;;;;;;6246792;23;20158;-68
2021/01/06 08:49:39;;;;;;;26.33;12.38;;;0.90;77.00;;;;;;6246015;23;20204;-69
2021/01/06 08:52:27;;;;;;;22.80;12.77;;;0.90;77.70;;;;;;6246731;23;20162;-68
2021/01/06 08:55:06;;;;;;;18.80;10.60;;;0.90;77.50;;;;;;6245577;23;20161;-68
2021/01/06 08:57:35;;;;;;;24.20;10.52;;;1.00;78.10;;;;;;6246655;23;20178;-69
2021/01/06 09:00:24;;;;;;;21.75;11.10;;;1.00;77.70;;;;;;6246214;23;20512;-68
2021/01/06 09:02:54;;;;;;;24.80;11.23;;;1.10;78.00;;;;;;6239110;23;20168;-69
2021/01/06 09:05:59;;;;;;;16.98;9.63;;;1.10;77.60;;;;;;6245953;23;20169;-68
2021/01/06 09:08:30;;;;;;;25.67;11.88;;;1.20;76.60;;;;;;6236233;23;20228;-69
2021/01/06 09:11:06;;;;;;;20.83;10.93;;;1.20;77.20;;;;;;6246087;23;20161;-67
2021/01/06 09:13:37;;;;;;;20.98;11.52;;;1.30;76.40;;;;;;6246230;23;20146;-68
2021/01/06 09:16:10;;;;;;;21.35;11.45;;;1.40;76.50;;;;;;6246407;23;20208;-71
2021/01/06 09:18:42;;;;;;;21.17;11.60;;;1.30;75.00;;;;;;6245460;23;20182;-69
2021/01/06 09:21:17;;;;;;;24.50;11.35;;;1.40;76.10;;;;;;6245881;23;20165;-69
2021/01/06 09:23:49;;;;;;;25.08;12.07;;;1.50;76.20;;;;;;6246227;23;20200;-77
2021/01/06 09:26:17;;;;;;;27.77;11.38;;;1.60;76.20;;;;;;6237908;23;20159;-70
2021/01/06 09:28:49;;;;;;;20.55;10.40;;;1.60;75.30;;;;;;6244174;23;20185;-69
2021/01/06 09:31:18;;;;;;;17.27;9.35;;;1.70;75.60;;;;;;6243286;23;20458;-70
2021/01/06 09:33:45;;;;;;;17.60;9.68;;;1.80;75.50;;;;;;6243269;23;20211;-71
2021/01/06 09:36:14;;;;;;;18.63;9.65;;;1.90;74.50;;;;;;6236483;23;20174;-69
2021/01/06 09:38:45;;;;;;;18.23;9.55;;;2.00;74.40;;;;;;6240814;23;20300;-70
2021/01/06 09:41:20;;;;;;;19.33;10.35;;;2.00;73.30;;;;;;6241159;23;20601;-70
2021/01/06 09:43:50;;;;;;;21.15;11.60;;;2.10;73.80;;;;;;6242525;23;20158;-70
2021/01/06 09:46:34;;;;;;;19.65;11.15;;;2.20;74.10;;;;;;6242699;23;20189;-70
2021/01/06 09:49:05;;;;;;;18.85;10.32;;;2.30;73.60;;;;;;6243410;23;20154;-69
2021/01/06 09:51:33;;;;;;;17.27;9.57;;;2.30;72.00;;;;;;6242816;23;20165;-70
2021/01/06 09:54:03;;;;;;;21.02;10.27;;;2.40;72.10;;;;;;6243572;23;20525;-69
2021/01/06 09:56:32;;;;;;;27.95;12.65;;;2.30;71.20;;;;;;6242887;23;20154;-70
2021/01/06 09:58:59;;;;;;;20.98;11.27;;;2.40;71.90;;;;;;6243076;23;20185;-69
2021/01/06 10:01:35;;;;;;;22.92;11.18;;;2.30;71.40;;;;;;6242928;23;20166;-71
2021/01/06 10:04:04;;;;;;;25.35;12.93;;;2.40;72.20;;;;;;6243195;23;20157;-70
2021/01/06 10:06:50;;;;;;;23.50;13.43;;;2.40;72.80;;;;;;6243181;23;20162;-69
2021/01/06 10:09:25;;;;;;;25.33;11.70;;;2.50;72.80;;;;;;6242847;23;20153;-71
2021/01/06 10:12:06;;;;;;;15.55;11.23;;;2.60;73.30;;;;;;6242372;23;20145;-71
2021/01/06 10:14:47;;;;;;;19.63;11.13;;;2.70;73.20;;;;;;6243481;23;20154;-70
2021/01/06 10:17:19;;;;;;;22.13;10.32;;;2.80;72.70;;;;;;6243015;23;20193;-70
2021/01/06 10:19:51;;;;;;;22.60;11.75;;;2.90;72.70;;;;;;6243977;23;20196;-69
2021/01/06 10:22:31;;;;;;;22.27;11.43;;;2.90;72.20;;;;;;6243153;23;20184;-70
2021/01/06 10:25:13;;;;;;;17.88;11.00;;;3.00;71.10;;;;;;6244725;23;20161;-69
2021/01/06 10:27:56;;;;;;;15.80;9.65;;;3.00;71.40;;;;;;6244468;23;20597;-70
2021/01/06 10:30:25;;;;;;;19.08;12.05;;;3.10;70.60;;;;;;6244463;23;20154;-70
2021/01/06 10:33:15;;;;;;;23.23;11.00;;;3.10;69.80;;;;;;6244623;23;20628;-69
2021/01/06 10:36:09;;;;;;;21.42;11.60;;;3.20;70.30;;;;;;6243275;23;20154;-69
2021/01/06 10:38:47;;;;;;;19.88;11.73;;;3.30;70.30;;;;;;6202118;23;20272;-70
2021/01/06 10:41:29;;;;;;;19.30;11.45;;;3.40;70.40;;;;;;6245319;23;20162;-69
2021/01/06 10:44:02;;;;;;;20.90;11.52;;;3.40;69.90;;;;;;6244192;23;20484;-69
2021/01/06 10:46:53;;;;;;;19.20;10.82;;;3.50;70.00;;;;;;6245197;23;20150;-71
2021/01/06 10:49:51;;;;;;;21.55;13.25;;;3.50;69.40;;;;;;6245183;23;20212;-69
2021/01/06 10:52:48;;;;;;;15.70;10.55;;;3.60;69.40;;;;;;6243916;23;20612;-72
2021/01/06 10:55:38;;;;;;;20.90;9.85;;;3.60;68.60;;;;;;6244527;23;20268;-70
2021/01/06 10:58:27;;;;;;;19.98;10.40;;;3.70;68.30;;;;;;6242764;23;20185;-72
2021/01/06 11:01:18;;;;;;;20.85;10.05;;;3.70;68.60;;;;;;6245161;23;20150;-71
2021/01/06 11:04:14;;;;;;;16.98;9.70;;;3.80;68.00;;;;;;6244615;23;20196;-70
2021/01/06 11:06:55;;;;;;;18.77;10.90;;;3.80;67.50;;;;;;6244719;23;20616;-69
2021/01/06 11:09:51;;;;;;;18.95;9.25;;;3.80;66.90;;;;;;6243536;23;20150;-69
2021/01/06 11:12:54;;;;;;;15.75;8.88;;;3.90;67.30;;;;;;6229699;23;20172;-70
2021/01/06 11:15:49;;;;;;;17.45;9.60;;;3.90;66.80;;;;;;6244174;23;20189;-70
2021/01/06 11:18:39;;;;;;;18.95;9.20;;;4.00;66.20;;;;;;6240904;23;20194;-72
2021/01/06 11:21:10;;;;;;;28.20;17.02;;;4.00;66.00;;;;;;6244500;23;20169;-69
2021/01/06 11:23:59;;;;;;;17.02;10.70;;;4.10;66.30;;;;;;6243846;23;20200;-69
2021/01/06 11:26:51;;;;;;;14.77;8.77;;;4.10;65.60;;;;;;6242562;23;20154;-76
2021/01/06 11:29:29;;;;;;;14.98;10.38;;;4.10;65.50;;;;;;6244707;23;20216;-70
2021/01/06 11:32:31;;;;;;;15.98;9.40;;;4.10;64.90;;;;;;6246289;23;20457;-70
2021/01/06 11:35:17;;;;;;;16.33;10.15;;;4.10;64.90;;;;;;6143858;23;20176;-70
2021/01/06 11:37:49;;;;;;;18.73;10.68;;;4.10;64.20;;;;;;6246438;23;20185;-69
2021/01/06 11:40:49;;;;;;;14.35;9.38;;;4.10;65.10;;;;;;6246608;23;20165;-71
2021/01/06 11:43:48;;;;;;;13.95;8.02;;;4.20;65.80;;;;;;6246302;23;20215;-70
2021/01/06 11:46:44;;;;;;;22.30;11.25;;;4.30;65.00;;;;;;6235956;23;20188;-71
2021/01/06 11:49:46;;;;;;;15.52;9.77;;;4.30;64.40;;;;;;6242982;23;20535;-69
2021/01/06 11:52:34;;;;;;;16.05;8.45;;;4.30;63.80;;;;;;6241284;23;20171;-71
2021/01/06 11:55:47;;;;;;;14.63;9.57;;;4.30;63.10;;;;;;6240658;23;20154;-69
2021/01/06 11:58:29;;;;;;;19.23;11.10;;;4.40;63.30;;;;;;6172329;23;20223;-71
2021/01/06 12:01:37;;;;;;;15.38;8.32;;;4.40;63.40;;;;;;6244471;23;20153;-71
2021/01/06 12:04:23;;;;;;;13.57;8.35;;;4.40;62.40;;;;;;6121649;23;20395;-70
2021/01/06 12:07:15;;;;;;;15.75;10.40;;;4.50;62.60;;;;;;6121585;23;20622;-71
2021/01/06 12:09:57;;;;;;;15.02;9.48;;;4.50;63.00;;;;;;6213202;23;20227;-69
2021/01/06 12:12:44;;;;;;;15.27;9.00;;;4.50;61.60;;;;;;6244472;23;20627;-71
2021/01/06 12:15:32;;;;;;;15.77;8.48;;;4.50;61.20;;;;;;6244134;23;20173;-70
2021/01/06 12:18:29;;;;;;;17.20;9.60;;;4.50;61.60;;;;;;6244394;23;20186;-71
2021/01/06 12:21:01;;;;;;;18.77;9.45;;;4.50;61.30;;;;;;6244003;23;20158;-70
2021/01/06 12:23:42;;;;;;;23.33;10.95;;;4.50;60.50;;;;;;6244037;23;20209;-73
2021/01/06 12:26:42;;;;;;;17.77;10.13;;;4.50;59.90;;;;;;6244560;23;20464;-69
2021/01/06 12:29:19;;;;;;;14.93;9.10;;;4.50;60.00;;;;;;6244476;23;20488;-71
2021/01/06 12:31:52;;;;;;;17.98;10.80;;;4.60;60.90;;;;;;6244213;23;20204;-71
2021/01/06 12:34:38;;;;;;;17.58;10.68;;;4.50;59.90;;;;;;6244415;23;20154;-73
2021/01/06 12:37:22;;;;;;;17.05;9.60;;;4.50;59.90;;;;;;6243831;23;20679;-72
2021/01/06 12:40:21;;;;;;;14.05;9.77;;;4.50;59.70;;;;;;6243942;23;20158;-70
2021/01/06 12:43:00;;;;;;;15.32;9.43;;;4.50;59.90;;;;;;6243779;23;20161;-70
2021/01/06 12:45:33;;;;;;;26.20;12.98;;;4.50;59.50;;;;;;6243969;23;20200;-70
2021/01/06 12:48:06;;;;;;;18.38;11.30;;;4.50;59.70;;;;;;6244271;23;20239;-69
2021/01/06 12:50:54;;;;;;;16.48;9.27;;;4.50;59.90;;;;;;6239988;23;20640;-70
2021/01/06 12:53:26;;;;;;;14.68;8.35;;;4.50;60.40;;;;;;6244026;23;20165;-70
2021/01/06 12:56:12;;;;;;;18.70;9.90;;;4.40;59.90;;;;;;6243523;23;20154;-70
2021/01/06 12:58:44;;;;;;;18.65;10.32;;;4.50;60.20;;;;;;6242165;23;20189;-71
2021/01/06 13:01:30;;;;;;;19.42;10.27;;;4.40;59.40;;;;;;6244472;23;20177;-70
2021/01/06 13:04:04;;;;;;;21.23;11.35;;;4.50;59.70;;;;;;6226086;23;20153;-76
2021/01/06 13:06:47;;;;;;;19.48;11.30;;;4.50;60.20;;;;;;6238205;23;20481;-70
2021/01/06 13:09:34;;;;;;;19.92;10.68;;;4.60;60.90;;;;;;6242105;23;20677;-71
2021/01/06 13:12:22;;;;;;;19.13;11.50;;;4.60;61.10;;;;;;6241820;23;20154;-70
2021/01/06 13:15:04;;;;;;;18.25;10.40;;;4.60;60.30;;;;;;6240835;23;20184;-70
2021/01/06 13:17:36;;;;;;;19.65;10.85;;;4.60;59.70;;;;;;6241166;23;20882;-69
2021/01/06 13:20:38;;;;;;;20.77;11.93;;;4.60;60.10;;;;;;6242222;23;20871;-70
2021/01/06 13:23:34;;;;;;;20.33;10.98;;;4.70;60.10;;;;;;6242447;23;20161;-70
2021/01/06 13:26:31;;;;;;;17.35;9.13;;;4.70;60.70;;;;;;6241883;23;20567;-70